createdAt,value
2024-01-24T00:02:04.700Z,4.00
2024-01-24T00:04:31.567Z,5.20
2024-01-24T00:06:58.859Z,5.18
2024-01-24T00:09:26.146Z,4.00
2024-01-24T00:11:53.439Z,6.35
2024-01-24T00:14:20.332Z,4.97
2024-01-24T00:16:47.122Z,6.47
2024-01-24T00:19:14.409Z,4.32
2024-01-24T00:21:41.745Z,6.63
2024-01-24T00:24:08.847Z,5.40
2024-01-24T00:26:38.985Z,5.57
2024-01-24T00:29:06.283Z,5.43
2024-01-24T00:31:33.609Z,4.22
2024-01-24T00:34:00.579Z,5.70
2024-01-24T00:36:27.980Z,5.22
2024-01-24T00:38:55.248Z,5.93
2024-01-24T00:41:22.453Z,5.13
2024-01-24T00:43:49.674Z,6.25
2024-01-24T00:46:16.561Z,4.85
2024-01-24T00:48:43.919Z,5.88
2024-01-24T00:51:11.256Z,8.53
2024-01-24T00:53:39.006Z,5.45
2024-01-24T00:56:06.556Z,5.90
2024-01-24T00:58:33.746Z,5.97
2024-01-24T01:01:01.395Z,4.40
2024-01-24T01:03:28.424Z,5.50
2024-01-24T01:05:55.729Z,5.70
2024-01-24T01:08:23.083Z,5.07
2024-01-24T01:10:49.963Z,5.03
2024-01-24T01:13:16.743Z,4.80
2024-01-24T01:15:44.082Z,7.37
2024-01-24T01:18:11.856Z,5.07
2024-01-24T01:20:38.707Z,4.57
2024-01-24T01:23:05.996Z,5.68
2024-01-24T01:25:33.220Z,3.63
2024-01-24T01:28:00.608Z,5.27
2024-01-24T01:30:27.619Z,4.40
2024-01-24T01:32:54.910Z,3.03
2024-01-24T01:35:21.738Z,5.55
2024-01-24T01:37:49.150Z,5.05
2024-01-24T01:40:16.394Z,4.70
2024-01-24T01:42:45.275Z,5.40
2024-01-24T01:45:12.942Z,3.75
2024-01-24T01:47:40.666Z,4.10
2024-01-24T01:50:15.236Z,4.47
2024-01-24T01:52:44.029Z,3.67
2024-01-24T01:55:12.914Z,4.32
2024-01-24T01:57:44.364Z,4.97
2024-01-24T02:00:12.449Z,4.60
2024-01-24T02:02:39.300Z,7.78
2024-01-24T02:05:06.695Z,4.30
2024-01-24T02:07:34.127Z,5.30
2024-01-24T02:10:01.519Z,5.72
2024-01-24T02:12:28.748Z,8.43
2024-01-24T02:14:55.600Z,4.07
2024-01-24T02:17:22.806Z,5.50
2024-01-24T02:19:50.139Z,8.60
2024-01-24T02:22:17.495Z,10.00
2024-01-24T02:24:44.785Z,6.88
2024-01-24T02:27:11.690Z,7.18
2024-01-24T02:29:38.978Z,5.97
2024-01-24T02:32:07.360Z,5.25
2024-01-24T02:34:34.808Z,4.30
2024-01-24T02:37:02.080Z,11.40
2024-01-24T02:39:29.284Z,7.47
2024-01-24T02:41:56.153Z,6.87
2024-01-24T02:44:23.388Z,4.80
2024-01-24T02:46:50.209Z,7.43
2024-01-24T02:49:17.523Z,6.32
2024-01-24T02:51:44.397Z,5.43
2024-01-24T02:54:11.660Z,9.43
2024-01-24T02:56:39.857Z,6.90
2024-01-24T02:59:06.754Z,8.00
2024-01-24T03:01:33.564Z,6.55
2024-01-24T03:04:00.428Z,10.57
2024-01-24T03:06:27.383Z,5.33
2024-01-24T03:08:59.330Z,6.40
2024-01-24T03:11:26.212Z,7.93
2024-01-24T03:13:53.075Z,7.35
2024-01-24T03:16:20.370Z,5.30
2024-01-24T03:18:49.143Z,7.87
2024-01-24T03:21:18.696Z,8.90
2024-01-24T03:23:46.312Z,7.18
2024-01-24T03:26:17.472Z,8.55
2024-01-24T03:28:44.392Z,5.53
2024-01-24T03:31:12.295Z,10.67
2024-01-24T03:33:39.316Z,8.23
2024-01-24T03:36:06.772Z,18.90
2024-01-24T03:38:34.339Z,13.18
2024-01-24T03:41:01.224Z,6.85
2024-01-24T03:43:28.026Z,12.67
2024-01-24T03:45:55.350Z,9.77
2024-01-24T03:48:22.729Z,9.82
2024-01-24T03:50:49.584Z,8.20
2024-01-24T03:53:16.882Z,15.50
2024-01-24T03:55:44.165Z,15.23
2024-01-24T03:58:11.701Z,9.13
2024-01-24T04:00:39.503Z,12.35
2024-01-24T04:03:06.871Z,11.07
2024-01-24T04:05:34.186Z,14.02
2024-01-24T04:08:01.532Z,14.20
2024-01-24T04:10:28.346Z,14.65
2024-01-24T04:12:55.412Z,17.23
2024-01-24T04:15:23.318Z,19.55
2024-01-24T04:17:50.446Z,24.23
2024-01-24T04:20:17.507Z,16.83
2024-01-24T04:22:44.830Z,12.07
2024-01-24T04:25:12.845Z,15.82
2024-01-24T04:27:40.299Z,24.13
2024-01-24T04:30:07.986Z,21.75
2024-01-24T04:32:35.307Z,17.40
2024-01-24T04:35:02.619Z,17.77
2024-01-24T04:37:29.931Z,22.83
2024-01-24T04:39:56.859Z,28.52
2024-01-24T04:42:24.167Z,22.75
2024-01-24T04:44:51.064Z,18.97
2024-01-24T04:47:18.330Z,23.73
2024-01-24T04:49:46.235Z,25.27
2024-01-24T04:52:15.747Z,21.65
2024-01-24T04:54:42.913Z,20.63
2024-01-24T04:57:10.282Z,26.50
2024-01-24T04:59:45.922Z,20.08
2024-01-24T05:02:21.178Z,29.70
2024-01-24T05:04:49.160Z,22.90
2024-01-24T05:07:16.475Z,17.65
2024-01-24T05:09:43.935Z,21.20
2024-01-24T05:12:11.403Z,25.17
2024-01-24T05:14:38.791Z,29.42
2024-01-24T05:17:05.707Z,37.70
2024-01-24T05:19:32.982Z,25.15
2024-01-24T05:21:59.825Z,28.97
2024-01-24T05:24:27.090Z,23.45
2024-01-24T05:26:53.954Z,18.77
2024-01-24T05:29:21.385Z,32.17
2024-01-24T05:31:48.197Z,25.27
2024-01-24T05:34:15.492Z,28.03
2024-01-24T05:36:42.419Z,26.92
2024-01-24T05:39:09.720Z,28.80
2024-01-24T05:41:37.277Z,32.25
2024-01-24T05:44:04.771Z,24.98
2024-01-24T05:46:32.197Z,28.07
2024-01-24T05:49:01.678Z,22.13
2024-01-24T05:51:29.271Z,28.50
2024-01-24T05:53:56.665Z,32.22
2024-01-24T05:56:23.940Z,35.42
2024-01-24T05:58:51.202Z,34.67
2024-01-24T06:01:18.875Z,31.23
2024-01-24T06:03:46.410Z,27.40
2024-01-24T06:06:13.946Z,36.55
2024-01-24T06:08:41.156Z,24.58
2024-01-24T06:11:10.845Z,25.67
2024-01-24T06:13:38.132Z,29.42
2024-01-24T06:16:05.549Z,25.98
2024-01-24T06:18:32.893Z,36.47
2024-01-24T06:21:00.256Z,31.63
2024-01-24T06:23:27.070Z,22.10
2024-01-24T06:25:54.066Z,30.27
2024-01-24T06:28:21.442Z,26.17
2024-01-24T06:30:48.415Z,34.13
2024-01-24T06:33:15.933Z,27.73
2024-01-24T06:35:43.208Z,25.03
2024-01-24T06:38:10.469Z,24.55
2024-01-24T06:40:37.710Z,19.67
2024-01-24T06:43:04.700Z,25.38
2024-01-24T06:45:32.034Z,37.25
2024-01-24T06:47:59.315Z,24.97
2024-01-24T06:50:27.036Z,34.30
2024-01-24T06:52:55.570Z,33.25
2024-01-24T06:55:22.963Z,28.98
2024-01-24T06:57:50.228Z,31.88
2024-01-24T07:00:17.746Z,32.70
2024-01-24T07:02:45.015Z,27.92
2024-01-24T07:05:12.316Z,43.63
2024-01-24T07:07:39.583Z,31.45
2024-01-24T07:10:12.488Z,27.00
2024-01-24T07:12:46.147Z,41.23
2024-01-24T07:15:13.963Z,32.20
2024-01-24T07:17:41.320Z,24.40
2024-01-24T07:20:08.892Z,26.35
2024-01-24T07:22:36.150Z,31.10
2024-01-24T07:25:07.988Z,32.27
2024-01-24T07:27:36.150Z,27.17
2024-01-24T07:30:05.541Z,26.42
2024-01-24T07:32:33.071Z,21.55
2024-01-24T07:35:01.102Z,31.60
2024-01-24T07:37:28.775Z,36.87
2024-01-24T07:39:56.335Z,31.77
2024-01-24T07:42:23.721Z,31.08
2024-01-24T07:44:51.201Z,26.00
2024-01-24T07:47:21.701Z,28.83
2024-01-24T07:49:49.377Z,38.17
2024-01-24T07:52:25.374Z,42.70
2024-01-24T07:55:01.577Z,24.73
2024-01-24T07:57:29.321Z,26.83
2024-01-24T07:59:57.038Z,32.70
2024-01-24T08:02:24.572Z,25.47
2024-01-24T08:04:52.101Z,24.77
2024-01-24T08:07:20.273Z,34.85
2024-01-24T08:09:48.292Z,29.33
2024-01-24T08:12:16.549Z,24.75
2024-01-24T08:14:43.940Z,23.03
2024-01-24T08:17:15.339Z,29.00
2024-01-24T08:19:42.315Z,34.38
2024-01-24T08:22:09.274Z,30.13
2024-01-24T08:24:36.165Z,26.02
2024-01-24T08:27:03.987Z,29.80
2024-01-24T08:29:36.855Z,22.17
2024-01-24T08:32:06.248Z,29.98
2024-01-24T08:34:36.612Z,23.52
2024-01-24T08:37:04.096Z,20.13
2024-01-24T08:39:31.412Z,33.20
2024-01-24T08:42:01.782Z,30.25
2024-01-24T08:44:29.062Z,30.95
2024-01-24T08:46:57.012Z,25.77
2024-01-24T08:49:24.294Z,38.50
2024-01-24T08:51:51.687Z,28.00
2024-01-24T08:54:19.376Z,33.88
2024-01-24T08:56:47.375Z,27.10
2024-01-24T08:59:16.892Z,26.60
2024-01-24T09:01:44.313Z,24.52
2024-01-24T09:04:11.512Z,28.00
2024-01-24T09:06:39.058Z,20.23
2024-01-24T09:09:07.846Z,24.75
2024-01-24T09:11:41.960Z,21.15
2024-01-24T09:14:16.631Z,30.08
2024-01-24T09:16:44.175Z,22.50
2024-01-24T09:19:13.379Z,32.35
2024-01-24T09:21:40.909Z,28.42
2024-01-24T09:24:08.202Z,24.35
2024-01-24T09:26:35.587Z,24.60
2024-01-24T09:29:03.958Z,30.47
2024-01-24T09:31:31.347Z,25.30
2024-01-24T09:33:58.785Z,35.22
2024-01-24T09:36:28.748Z,33.67
2024-01-24T09:38:56.361Z,35.45
2024-01-24T09:41:24.558Z,22.03
2024-01-24T09:43:53.718Z,25.23
2024-01-24T09:46:21.785Z,30.83
2024-01-24T09:48:49.345Z,24.55
2024-01-24T09:51:16.711Z,37.88
2024-01-24T09:53:47.257Z,29.43
2024-01-24T09:56:15.511Z,22.27
2024-01-24T09:58:43.355Z,25.75
2024-01-24T10:01:14.309Z,24.23
2024-01-24T10:03:42.518Z,17.67
2024-01-24T10:06:11.874Z,24.70
2024-01-24T10:08:39.500Z,27.38
2024-01-24T10:11:07.606Z,26.42
2024-01-24T10:13:35.110Z,28.05
2024-01-24T10:16:07.724Z,28.55
2024-01-24T10:18:36.976Z,31.50
2024-01-24T10:21:06.253Z,23.20
2024-01-24T10:23:35.115Z,18.50
2024-01-24T10:26:03.034Z,29.85
2024-01-24T10:28:30.388Z,32.30
2024-01-24T10:30:57.525Z,31.57
2024-01-24T10:33:25.067Z,26.88
2024-01-24T10:35:53.533Z,29.27
2024-01-24T10:38:23.372Z,29.27
2024-01-24T10:40:56.081Z,31.52
2024-01-24T10:43:24.321Z,31.37
2024-01-24T10:45:54.163Z,27.65
2024-01-24T10:48:21.805Z,30.02
2024-01-24T10:50:49.611Z,35.50
2024-01-24T10:53:17.106Z,29.75
2024-01-24T10:55:44.382Z,24.77
2024-01-24T10:58:12.356Z,36.22
2024-01-24T11:00:40.813Z,34.65
2024-01-24T11:03:08.353Z,24.25
2024-01-24T11:05:57.119Z,26.42
2024-01-24T11:08:51.185Z,27.77
2024-01-24T11:11:21.710Z,31.58
2024-01-24T11:13:49.082Z,19.25
2024-01-24T11:16:38.505Z,18.70
2024-01-24T11:19:23.452Z,38.42
2024-01-24T11:21:51.329Z,31.67
2024-01-24T11:24:47.842Z,30.55
2024-01-24T11:27:34.106Z,29.17
2024-01-24T11:30:07.870Z,22.98
2024-01-24T11:32:48.250Z,24.80
2024-01-24T11:35:32.605Z,27.10
2024-01-24T11:38:16.829Z,24.00
2024-01-24T11:40:53.714Z,22.48
2024-01-24T11:43:37.562Z,22.38
2024-01-24T11:46:09.038Z,22.33
2024-01-24T11:48:38.470Z,26.10
2024-01-24T11:51:11.791Z,23.40
2024-01-24T11:53:39.118Z,21.02
2024-01-24T11:56:07.994Z,27.40
2024-01-24T11:58:35.485Z,29.45
2024-01-24T12:01:07.455Z,23.27
2024-01-24T12:03:35.237Z,17.85
2024-01-24T12:06:03.329Z,20.15
2024-01-24T12:08:30.692Z,24.38
2024-01-24T12:10:58.055Z,23.83
2024-01-24T12:13:28.108Z,30.97
2024-01-24T12:16:00.273Z,24.95
2024-01-24T12:18:30.808Z,22.83
2024-01-24T12:21:02.268Z,24.15
2024-01-24T12:23:30.203Z,26.38
2024-01-24T12:25:57.922Z,22.03
2024-01-24T12:28:25.701Z,21.45
2024-01-24T12:30:54.588Z,16.52
2024-01-24T12:33:22.073Z,25.80
2024-01-24T12:35:50.555Z,22.08
2024-01-24T12:38:19.174Z,33.60
2024-01-24T12:40:55.364Z,34.00
2024-01-24T12:43:24.593Z,28.98
2024-01-24T12:45:54.750Z,21.35
2024-01-24T12:48:23.843Z,21.15
2024-01-24T12:50:53.117Z,23.50
2024-01-24T12:53:21.534Z,23.85
2024-01-24T12:55:49.169Z,21.15
2024-01-24T12:58:18.765Z,22.30
2024-01-24T13:00:46.459Z,17.48
2024-01-24T13:03:15.096Z,19.33
2024-01-24T13:05:47.182Z,20.80
2024-01-24T13:08:16.138Z,16.13
2024-01-24T13:10:45.298Z,26.02
2024-01-24T13:13:13.372Z,23.33
2024-01-24T13:15:41.433Z,22.77
2024-01-24T13:18:09.736Z,22.90
2024-01-24T13:20:37.509Z,21.90
2024-01-24T13:23:04.803Z,22.30
2024-01-24T13:25:32.162Z,19.40
2024-01-24T13:28:00.002Z,22.13
2024-01-24T13:30:28.028Z,21.38
2024-01-24T13:32:56.102Z,29.45
2024-01-24T13:35:23.645Z,21.85
2024-01-24T13:37:51.111Z,32.05
2024-01-24T13:40:19.615Z,18.97
2024-01-24T13:42:47.661Z,26.50
2024-01-24T13:45:15.919Z,23.33
2024-01-24T13:47:43.348Z,21.80
2024-01-24T13:50:12.889Z,28.20
2024-01-24T13:52:40.730Z,28.00
2024-01-24T13:55:09.669Z,22.08
2024-01-24T13:57:39.732Z,16.33
2024-01-24T14:00:12.731Z,23.25
2024-01-24T14:02:40.425Z,16.17
2024-01-24T14:05:07.841Z,16.13
2024-01-24T14:07:35.633Z,19.67
2024-01-24T14:10:03.505Z,22.73
2024-01-24T14:12:30.844Z,24.13
2024-01-24T14:14:58.622Z,18.10
2024-01-24T14:17:26.755Z,22.80
2024-01-24T14:19:54.205Z,17.27
2024-01-24T14:22:21.597Z,32.72
2024-01-24T14:24:48.931Z,31.75
2024-01-24T14:27:15.764Z,27.77
2024-01-24T14:29:42.629Z,26.73
2024-01-24T14:32:09.939Z,24.58
2024-01-24T14:34:38.715Z,22.90
2024-01-24T14:37:10.523Z,27.08
2024-01-24T14:39:40.439Z,20.83
2024-01-24T14:42:08.608Z,27.50
2024-01-24T14:44:35.948Z,31.70
2024-01-24T14:47:03.198Z,30.30
2024-01-24T14:49:30.744Z,28.55
2024-01-24T14:51:58.838Z,22.98
2024-01-24T14:54:26.221Z,29.33
2024-01-24T14:56:53.609Z,21.40
2024-01-24T14:59:20.852Z,26.75
2024-01-24T15:01:47.808Z,25.00
2024-01-24T15:04:15.192Z,30.08
2024-01-24T15:06:42.687Z,25.13
2024-01-24T15:09:10.042Z,21.23
2024-01-24T15:11:36.963Z,28.90
2024-01-24T15:14:04.471Z,19.63
2024-01-24T15:16:32.204Z,29.10
2024-01-24T15:18:59.812Z,28.57
2024-01-24T15:21:27.648Z,26.92
2024-01-24T15:23:59.088Z,33.17
2024-01-24T15:26:26.372Z,26.30
2024-01-24T15:28:53.790Z,25.10
2024-01-24T15:31:20.754Z,31.73
2024-01-24T15:33:48.222Z,16.65
2024-01-24T15:36:15.662Z,26.17
2024-01-24T15:38:43.679Z,22.85
2024-01-24T15:41:12.065Z,34.88
2024-01-24T15:43:40.662Z,35.40
2024-01-24T15:46:08.345Z,27.92
2024-01-24T15:48:35.889Z,31.23
2024-01-24T15:51:03.370Z,35.58
2024-01-24T15:53:30.607Z,25.35
2024-01-24T15:55:57.913Z,28.20
2024-01-24T15:58:25.314Z,27.05
2024-01-24T16:00:53.057Z,24.50
2024-01-24T16:03:22.799Z,22.17
2024-01-24T16:05:51.178Z,21.05
2024-01-24T16:08:18.976Z,35.97
2024-01-24T16:10:48.766Z,29.55
2024-01-24T16:13:16.206Z,27.02
2024-01-24T16:15:43.556Z,28.05
2024-01-24T16:18:11.557Z,32.15
2024-01-24T16:20:38.828Z,27.17
2024-01-24T16:23:06.089Z,28.55
2024-01-24T16:25:33.516Z,35.88
2024-01-24T16:28:00.890Z,23.52
2024-01-24T16:30:29.567Z,25.30
2024-01-24T16:32:57.416Z,30.17
2024-01-24T16:35:24.934Z,29.00
2024-01-24T16:37:53.014Z,31.80
2024-01-24T16:40:19.930Z,33.38
2024-01-24T16:42:46.909Z,29.23
2024-01-24T16:45:15.700Z,28.87
2024-01-24T16:47:44.281Z,21.63
2024-01-24T16:50:11.783Z,19.83
2024-01-24T16:52:39.284Z,24.00
2024-01-24T16:55:06.912Z,35.53
2024-01-24T16:57:35.025Z,27.97
2024-01-24T17:00:02.902Z,28.67
2024-01-24T17:02:38.113Z,25.88
2024-01-24T17:05:11.157Z,26.52
2024-01-24T17:07:38.579Z,28.95
2024-01-24T17:10:06.829Z,20.80
2024-01-24T17:12:34.448Z,29.70
2024-01-24T17:15:01.518Z,24.60
2024-01-24T17:17:28.821Z,33.45
2024-01-24T17:19:57.155Z,33.53
2024-01-24T17:22:24.812Z,24.10
2024-01-24T17:24:51.917Z,31.70
2024-01-24T17:27:19.180Z,16.88
2024-01-24T17:29:46.836Z,24.58
2024-01-24T17:32:14.903Z,21.85
2024-01-24T17:34:43.562Z,33.70
2024-01-24T17:37:11.529Z,25.38
2024-01-24T17:39:39.715Z,23.80
2024-01-24T17:42:07.146Z,21.67
2024-01-24T17:44:35.406Z,33.25
2024-01-24T17:47:02.458Z,23.23
2024-01-24T17:49:30.150Z,23.50
2024-01-24T17:51:57.706Z,24.65
2024-01-24T17:54:25.514Z,27.23
2024-01-24T17:56:52.807Z,26.27
2024-01-24T17:59:20.296Z,29.17
2024-01-24T18:01:47.787Z,29.77
2024-01-24T18:04:15.128Z,31.75
2024-01-24T18:06:42.947Z,26.77
2024-01-24T18:09:10.357Z,23.42
2024-01-24T18:11:39.818Z,29.57
2024-01-24T18:14:07.490Z,25.08
2024-01-24T18:16:34.792Z,27.80
2024-01-24T18:19:01.821Z,18.33
2024-01-24T18:21:30.834Z,20.75
2024-01-24T18:23:58.196Z,29.13
2024-01-24T18:26:25.504Z,28.65
2024-01-24T18:28:52.363Z,34.42
2024-01-24T18:31:19.669Z,39.78
2024-01-24T18:33:47.157Z,29.80
2024-01-24T18:36:14.337Z,38.10
2024-01-24T18:38:41.537Z,31.27
2024-01-24T18:41:08.476Z,36.15
2024-01-24T18:43:35.830Z,25.73
2024-01-24T18:46:03.294Z,33.90
2024-01-24T18:48:30.425Z,36.60
2024-01-24T18:50:57.905Z,38.15
2024-01-24T18:53:24.960Z,33.15
2024-01-24T18:55:53.479Z,23.55
2024-01-24T18:58:21.774Z,37.47
2024-01-24T19:00:49.069Z,45.00
2024-01-24T19:03:17.644Z,29.63
2024-01-24T19:05:45.067Z,41.85
2024-01-24T19:08:14.398Z,30.77
2024-01-24T19:10:41.948Z,35.95
2024-01-24T19:13:09.425Z,46.67
2024-01-24T19:15:36.917Z,36.92
2024-01-24T19:18:10.480Z,40.47
2024-01-24T19:20:42.001Z,34.83
2024-01-24T19:23:09.443Z,39.20
2024-01-24T19:25:36.722Z,34.73
2024-01-24T19:28:04.103Z,29.92
2024-01-24T19:30:31.449Z,34.42
2024-01-24T19:32:58.894Z,35.53
2024-01-24T19:35:26.714Z,30.55
2024-01-24T19:37:54.039Z,31.97
2024-01-24T19:40:21.250Z,37.00
2024-01-24T19:42:48.650Z,30.48
2024-01-24T19:45:16.314Z,41.70
2024-01-24T19:47:43.442Z,35.60
2024-01-24T19:50:11.609Z,41.23
2024-01-24T19:52:40.007Z,34.90
2024-01-24T19:55:08.413Z,28.80
2024-01-24T19:57:36.104Z,46.28
2024-01-24T20:00:04.630Z,40.25
2024-01-24T20:02:32.204Z,43.20
2024-01-24T20:04:59.644Z,31.13
2024-01-24T20:07:26.855Z,35.58
2024-01-24T20:09:54.733Z,40.60
2024-01-24T20:12:22.925Z,28.98
2024-01-24T20:14:50.661Z,38.83
2024-01-24T20:17:19.966Z,35.35
2024-01-24T20:19:48.323Z,28.05
2024-01-24T20:22:16.150Z,33.00
2024-01-24T20:24:43.490Z,38.50
2024-01-24T20:27:11.330Z,28.73
2024-01-24T20:29:38.592Z,37.58
2024-01-24T20:32:05.896Z,35.42
2024-01-24T20:34:33.188Z,30.00
2024-01-24T20:37:00.683Z,34.45
2024-01-24T20:39:28.602Z,39.27
2024-01-24T20:41:55.487Z,47.85
2024-01-24T20:44:22.578Z,40.63
2024-01-24T20:46:49.904Z,33.40
2024-01-24T20:49:17.774Z,39.97
2024-01-24T20:51:47.947Z,31.40
2024-01-24T20:54:15.106Z,35.28
2024-01-24T20:56:44.504Z,27.88
2024-01-24T20:59:12.184Z,37.67
2024-01-24T21:01:39.608Z,30.98
2024-01-24T21:04:07.148Z,27.27
2024-01-24T21:06:34.897Z,31.77
2024-01-24T21:09:02.140Z,24.70
2024-01-24T21:11:29.456Z,33.60
2024-01-24T21:13:57.236Z,22.55
2024-01-24T21:16:24.521Z,30.70
2024-01-24T21:18:52.182Z,28.67
2024-01-24T21:21:19.739Z,30.48
2024-01-24T21:23:47.136Z,36.63
2024-01-24T21:26:14.432Z,28.30
2024-01-24T21:28:41.782Z,27.97
2024-01-24T21:31:09.824Z,33.20
2024-01-24T21:33:36.936Z,35.13
2024-01-24T21:36:04.594Z,28.63
2024-01-24T21:38:32.511Z,33.08
2024-01-24T21:40:59.732Z,26.57
2024-01-24T21:43:26.647Z,28.88
2024-01-24T21:45:53.923Z,30.48
2024-01-24T21:48:21.209Z,26.52
2024-01-24T21:50:48.466Z,30.83
2024-01-24T21:53:15.715Z,25.20
2024-01-24T21:55:43.037Z,22.45
2024-01-24T21:58:10.361Z,30.30
2024-01-24T22:00:37.831Z,19.75
2024-01-24T22:03:05.258Z,32.13
2024-01-24T22:05:32.526Z,28.50
2024-01-24T22:08:00.278Z,25.65
2024-01-24T22:10:27.934Z,27.58
2024-01-24T22:12:56.128Z,25.83
2024-01-24T22:15:23.067Z,21.85
2024-01-24T22:17:51.017Z,26.33
2024-01-24T22:20:18.813Z,21.15
2024-01-24T22:22:46.221Z,27.15
2024-01-24T22:25:13.035Z,28.75
2024-01-24T22:27:40.453Z,24.35
2024-01-24T22:30:07.833Z,28.93
2024-01-24T22:32:35.334Z,34.63
2024-01-24T22:35:04.181Z,22.40
2024-01-24T22:37:31.608Z,17.20
2024-01-24T22:39:58.976Z,22.30
2024-01-24T22:42:26.371Z,23.27
2024-01-24T22:44:53.199Z,24.65
2024-01-24T22:47:21.347Z,19.42
2024-01-24T22:49:48.353Z,20.60
2024-01-24T22:52:16.344Z,23.58
2024-01-24T22:54:43.764Z,24.20
2024-01-24T22:57:12.779Z,19.63
2024-01-24T22:59:39.601Z,15.13
2024-01-24T23:02:07.074Z,25.42
2024-01-24T23:04:34.862Z,27.15
2024-01-24T23:07:02.410Z,27.13
2024-01-24T23:09:29.745Z,21.60
2024-01-24T23:11:57.041Z,27.95
2024-01-24T23:14:24.322Z,18.50
2024-01-24T23:16:51.550Z,21.23
2024-01-24T23:19:18.913Z,38.00
2024-01-24T23:21:46.257Z,27.70
2024-01-24T23:24:13.587Z,25.90
2024-01-24T23:26:41.097Z,18.20
2024-01-24T23:29:08.549Z,27.08
2024-01-24T23:31:35.953Z,30.10
2024-01-24T23:34:03.337Z,25.98
2024-01-24T23:36:30.709Z,21.73
2024-01-24T23:38:57.647Z,23.70
2024-01-24T23:41:24.497Z,23.83
2024-01-24T23:43:52.334Z,22.83
2024-01-24T23:46:19.526Z,31.48
2024-01-24T23:48:46.966Z,31.20
2024-01-24T23:51:14.951Z,27.58
2024-01-24T23:53:42.457Z,29.15
2024-01-24T23:56:09.690Z,28.57
2024-01-24T23:58:36.506Z,22.17
